createdAt,value
2022-08-17T00:01:31.441Z,60.10
2022-08-17T00:04:19.300Z,60.45
2022-08-17T00:06:49.238Z,60.76
2022-08-17T00:09:18.373Z,60.66
2022-08-17T00:12:41.239Z,60.63
2022-08-17T00:14:35.908Z,61.12
2022-08-17T00:17:03.800Z,60.80
2022-08-17T00:19:32.433Z,61.32
2022-08-17T00:22:33.039Z,60.86
2022-08-17T00:24:47.142Z,61.34
2022-08-17T00:27:13.664Z,61.56
2022-08-17T00:29:40.464Z,61.46
2022-08-17T00:33:15.410Z,61.48
2022-08-17T00:34:53.812Z,61.85
2022-08-17T00:37:20.339Z,61.65
2022-08-17T00:39:46.916Z,61.81
2022-08-17T00:42:15.273Z,62.00
2022-08-17T00:44:41.768Z,62.14
2022-08-17T00:47:08.358Z,61.71
2022-08-17T00:49:34.886Z,61.96
2022-08-17T00:52:12.612Z,62.30
2022-08-17T00:54:42.569Z,62.35
2022-08-17T00:57:18.327Z,62.13
2022-08-17T01:00:02.283Z,62.00
2022-08-17T01:02:41.465Z,61.97
2022-08-17T01:05:13.646Z,61.94
2022-08-17T01:07:40.629Z,59.68
2022-08-17T01:10:57.103Z,61.47
2022-08-17T01:12:58.069Z,61.52
2022-08-17T01:15:25.171Z,61.67
2022-08-17T01:17:51.754Z,61.87
2022-08-17T01:20:18.401Z,62.13
2022-08-17T01:22:45.139Z,62.60
2022-08-17T01:25:12.756Z,62.48
2022-08-17T01:27:40.464Z,62.69
2022-08-17T01:30:56.672Z,62.10
2022-08-17T01:32:57.217Z,62.36
2022-08-17T01:35:23.975Z,62.52
2022-08-17T01:37:50.589Z,62.50
2022-08-17T01:40:31.113Z,62.51
2022-08-17T01:43:19.905Z,62.22
2022-08-17T01:45:49.146Z,62.54
2022-08-17T01:48:32.952Z,62.29
2022-08-17T01:51:00.302Z,62.42
2022-08-17T01:53:32.834Z,62.90
2022-08-17T01:56:04.549Z,62.86
2022-08-17T01:58:33.496Z,63.08
2022-08-17T02:01:01.472Z,62.80
2022-08-17T02:03:29.754Z,63.23
2022-08-17T02:05:56.456Z,63.27
2022-08-17T02:08:37.240Z,63.11
2022-08-17T02:11:14.532Z,63.46
2022-08-17T02:13:41.742Z,63.43
2022-08-17T02:16:08.311Z,63.79
2022-08-17T02:18:34.839Z,64.52
2022-08-17T02:21:02.049Z,64.10
2022-08-17T02:23:32.179Z,64.07
2022-08-17T02:26:00.559Z,64.25
2022-08-17T02:28:28.428Z,64.25
2022-08-17T02:31:01.081Z,64.50
2022-08-17T02:33:41.923Z,64.56
2022-08-17T02:36:11.362Z,64.54
2022-08-17T02:38:39.349Z,64.93
2022-08-17T02:41:06.073Z,64.79
2022-08-17T02:43:32.730Z,65.19
2022-08-17T02:45:59.948Z,65.48
2022-08-17T02:48:31.303Z,65.73
2022-08-17T02:50:59.718Z,65.70
2022-08-17T02:53:26.666Z,66.06
2022-08-17T02:55:53.405Z,66.50
2022-08-17T02:58:35.114Z,66.32
2022-08-17T03:01:04.109Z,66.09
2022-08-17T03:03:30.628Z,66.22
2022-08-17T03:05:57.339Z,66.89
2022-08-17T03:08:25.356Z,66.73
2022-08-17T03:10:51.878Z,66.93
2022-08-17T03:13:18.382Z,66.66
2022-08-17T03:15:46.284Z,67.23
2022-08-17T03:18:24.071Z,67.05
2022-08-17T03:21:01.566Z,67.30
2022-08-17T03:23:29.663Z,67.42
2022-08-17T03:25:56.413Z,67.77
2022-08-17T03:28:23.370Z,67.67
2022-08-17T03:30:51.078Z,67.83
2022-08-17T03:33:18.856Z,67.85
2022-08-17T03:35:45.392Z,67.63
2022-08-17T03:38:15.095Z,68.20
2022-08-17T03:40:56.487Z,67.96
2022-08-17T03:43:25.197Z,68.37
2022-08-17T03:46:27.004Z,68.38
2022-08-17T03:49:15.635Z,68.20
2022-08-17T03:52:01.105Z,68.29
2022-08-17T03:54:46.038Z,68.26
2022-08-17T03:57:12.810Z,68.37
2022-08-17T03:59:40.585Z,68.62
2022-08-17T04:02:15.516Z,68.54
2022-08-17T04:04:42.056Z,69.03
2022-08-17T04:07:08.700Z,69.29
2022-08-17T04:09:36.402Z,69.31
2022-08-17T04:12:04.720Z,69.01
2022-08-17T04:14:53.401Z,70.27
2022-08-17T04:17:24.056Z,70.95
2022-08-17T04:19:50.591Z,71.11
2022-08-17T04:22:32.508Z,71.94
2022-08-17T04:25:27.274Z,72.06
2022-08-17T04:27:55.081Z,71.17
2022-08-17T04:30:22.522Z,71.20
2022-08-17T04:33:05.951Z,70.71
2022-08-17T04:35:41.100Z,70.76
2022-08-17T04:38:11.926Z,70.57
2022-08-17T04:40:57.062Z,71.05
2022-08-17T04:43:26.405Z,71.38
2022-08-17T04:45:57.339Z,71.53
2022-08-17T04:48:36.651Z,71.11
2022-08-17T04:51:14.557Z,71.11
2022-08-17T04:53:44.300Z,71.02
2022-08-17T04:56:16.880Z,70.52
2022-08-17T04:58:47.893Z,71.15
2022-08-17T05:01:22.923Z,71.31
2022-08-17T05:03:50.163Z,70.75
2022-08-17T05:06:16.680Z,70.97
2022-08-17T05:08:43.180Z,70.90
2022-08-17T05:11:10.096Z,70.50
2022-08-17T05:13:36.606Z,70.54
2022-08-17T05:16:04.511Z,70.83
2022-08-17T05:18:31.232Z,70.95
2022-08-17T05:20:57.852Z,71.16
2022-08-17T05:23:26.617Z,70.78
2022-08-17T05:26:08.358Z,70.88
2022-08-17T05:28:38.168Z,70.94
2022-08-17T05:31:06.762Z,71.12
2022-08-17T05:33:36.789Z,70.86
2022-08-17T05:36:05.817Z,70.95
2022-08-17T05:38:33.181Z,71.03
2022-08-17T05:41:02.131Z,71.07
2022-08-17T05:43:32.773Z,71.13
2022-08-17T05:46:10.449Z,71.02
2022-08-17T05:48:42.397Z,70.74
2022-08-17T05:51:36.548Z,70.90
2022-08-17T05:54:33.229Z,70.54
2022-08-17T05:57:14.892Z,70.58
2022-08-17T06:00:08.811Z,70.34
2022-08-17T06:02:54.755Z,70.87
2022-08-17T06:05:30.507Z,70.90
2022-08-17T06:08:35.864Z,70.34
2022-08-17T06:11:26.239Z,70.45
2022-08-17T06:14:03.216Z,70.67
2022-08-17T06:16:36.155Z,70.76
2022-08-17T06:19:11.487Z,70.37
2022-08-17T06:21:43.100Z,70.64
2022-08-17T06:24:21.994Z,70.37
2022-08-17T06:26:50.222Z,70.98
2022-08-17T06:29:41.253Z,70.31
2022-08-17T06:32:10.399Z,70.72
2022-08-17T06:34:41.127Z,70.56
2022-08-17T06:37:43.270Z,70.70
2022-08-17T06:40:33.788Z,70.24
2022-08-17T06:43:12.763Z,70.59
2022-08-17T06:45:49.183Z,71.01
2022-08-17T06:48:26.615Z,71.03
2022-08-17T06:50:59.873Z,71.34
2022-08-17T06:53:41.965Z,71.44
2022-08-17T06:56:10.525Z,71.28
2022-08-17T06:58:40.129Z,71.11
2022-08-17T07:01:15.260Z,71.03
2022-08-17T07:03:54.630Z,70.77
2022-08-17T07:06:37.071Z,71.01
2022-08-17T07:09:18.822Z,70.89
2022-08-17T07:11:53.907Z,71.17
2022-08-17T07:14:39.412Z,71.02
2022-08-17T07:17:11.096Z,71.41
2022-08-17T07:19:43.969Z,71.40
2022-08-17T07:22:57.755Z,71.13
2022-08-17T07:25:20.925Z,71.59
2022-08-17T07:27:53.568Z,71.34
2022-08-17T07:30:24.652Z,71.34
2022-08-17T07:32:57.266Z,71.58
2022-08-17T07:35:44.876Z,71.19
2022-08-17T07:38:25.891Z,71.50
2022-08-17T07:41:02.390Z,71.46
2022-08-17T07:43:31.097Z,71.25
2022-08-17T07:46:40.080Z,71.59
2022-08-17T07:49:09.207Z,71.76
2022-08-17T07:51:55.320Z,71.75
2022-08-17T07:54:29.443Z,72.14
2022-08-17T07:56:57.351Z,71.98
2022-08-17T07:59:33.822Z,71.98
2022-08-17T08:02:03.596Z,71.96
2022-08-17T08:07:31.805Z,72.24
2022-08-17T08:10:12.232Z,71.79
2022-08-17T08:12:47.857Z,71.83
2022-08-17T08:15:22.167Z,72.04
2022-08-17T08:18:02.916Z,71.87
2022-08-17T08:20:53.894Z,71.54
2022-08-17T08:23:39.451Z,71.25
2022-08-17T08:26:26.392Z,71.62
2022-08-17T08:29:22.415Z,71.56
2022-08-17T08:32:05.504Z,71.64
2022-08-17T08:34:53.184Z,71.55
2022-08-17T08:37:43.100Z,71.36
2022-08-17T08:40:43.962Z,71.35
2022-08-17T08:43:28.729Z,71.71
2022-08-17T08:46:05.850Z,71.96
2022-08-17T08:49:06.460Z,71.62
2022-08-17T08:51:56.046Z,71.23
2022-08-17T08:54:35.674Z,71.36
2022-08-17T08:57:26.798Z,71.85
2022-08-17T09:00:17.149Z,70.96
2022-08-17T09:03:06.124Z,71.20
2022-08-17T09:05:48.511Z,70.92
2022-08-17T09:08:38.805Z,71.05
2022-08-17T09:11:22.341Z,70.97
2022-08-17T09:14:21.641Z,70.78
2022-08-17T09:17:05.395Z,70.27
2022-08-17T09:19:56.186Z,70.35
2022-08-17T09:22:43.171Z,70.37
2022-08-17T09:25:26.215Z,69.87
2022-08-17T09:28:03.820Z,69.80
2022-08-17T09:30:45.448Z,69.91
2022-08-17T09:33:17.563Z,70.09
2022-08-17T09:35:59.911Z,69.85
2022-08-17T09:38:41.607Z,69.77
2022-08-17T09:41:23.715Z,70.12
2022-08-17T09:44:02.370Z,70.79
2022-08-17T09:46:34.458Z,70.87
2022-08-17T09:49:16.065Z,70.40
2022-08-17T09:51:52.175Z,70.04
2022-08-17T09:54:44.840Z,70.38
2022-08-17T09:57:30.213Z,70.03
2022-08-17T10:00:18.799Z,70.77
2022-08-17T10:02:54.430Z,72.10
2022-08-17T10:05:56.880Z,72.66
2022-08-17T10:08:35.013Z,73.40
2022-08-17T10:11:46.309Z,73.89
2022-08-17T10:15:08.237Z,73.50
2022-08-17T10:17:56.204Z,74.45
2022-08-17T10:20:28.168Z,75.70
2022-08-17T10:23:27.256Z,76.22
2022-08-17T10:26:14.645Z,75.09
2022-08-17T10:28:51.248Z,76.71
2022-08-17T10:31:40.069Z,77.15
2022-08-17T10:34:49.052Z,77.32
2022-08-17T10:37:25.101Z,77.14
2022-08-17T10:40:18.987Z,77.88
2022-08-17T10:42:51.648Z,78.87
2022-08-17T10:45:30.911Z,78.44
2022-08-17T10:48:05.627Z,80.19
2022-08-17T10:50:52.927Z,80.18
2022-08-17T10:53:31.788Z,81.18
2022-08-17T10:56:13.622Z,81.16
2022-08-17T10:58:57.100Z,82.12
2022-08-17T11:01:32.927Z,82.63
2022-08-17T11:04:25.665Z,81.89
2022-08-17T11:07:22.926Z,82.27
2022-08-17T11:10:29.866Z,81.86
2022-08-17T11:13:11.415Z,82.77
2022-08-17T11:16:08.122Z,79.81
2022-08-17T11:19:09.875Z,82.05
2022-08-17T11:22:07.594Z,81.95
2022-08-17T11:24:37.322Z,83.26
2022-08-17T11:27:03.777Z,83.17
2022-08-17T11:29:50.645Z,84.05
2022-08-17T11:33:00.262Z,83.52
2022-08-17T11:35:44.580Z,82.64
2022-08-17T11:38:29.398Z,82.62
2022-08-17T11:41:17.682Z,82.57
2022-08-17T11:44:07.619Z,82.55
2022-08-17T11:47:14.247Z,82.71
2022-08-17T11:50:36.983Z,83.34
2022-08-17T11:53:04.448Z,82.95
2022-08-17T11:55:38.218Z,83.11
2022-08-17T11:58:51.839Z,82.94
2022-08-17T12:01:26.698Z,82.63
2022-08-17T12:04:14.710Z,82.85
2022-08-17T12:06:50.183Z,83.24
2022-08-17T12:09:26.348Z,83.98
2022-08-17T12:12:13.351Z,83.86
2022-08-17T12:17:40.793Z,84.09
2022-08-17T12:20:35.160Z,83.80
2022-08-17T12:23:12.354Z,83.68
2022-08-17T12:25:49.306Z,83.84
2022-08-17T12:28:26.914Z,83.32
2022-08-17T12:30:56.101Z,82.71
2022-08-17T12:33:28.475Z,83.78
2022-08-17T12:36:03.179Z,83.32
2022-08-17T12:38:34.567Z,82.72
2022-08-17T12:41:24.968Z,81.30
2022-08-17T12:44:03.605Z,83.10
2022-08-17T12:46:46.330Z,82.46
2022-08-17T12:49:15.227Z,82.89
2022-08-17T12:51:46.497Z,83.66
2022-08-17T12:54:47.956Z,83.01
2022-08-17T12:57:25.568Z,83.34
2022-08-17T12:59:58.472Z,83.30
2022-08-17T13:02:29.908Z,83.64
2022-08-17T13:04:58.440Z,81.70
2022-08-17T13:07:35.192Z,83.69
2022-08-17T13:10:02.436Z,83.77
2022-08-17T13:12:34.938Z,83.28
2022-08-17T13:15:02.208Z,82.72
2022-08-17T13:17:34.660Z,82.57
2022-08-17T13:20:03.243Z,83.11
2022-08-17T13:22:32.357Z,83.27
2022-08-17T13:25:08.365Z,84.01
2022-08-17T13:27:35.102Z,83.50
2022-08-17T13:30:07.067Z,83.83
2022-08-17T13:32:43.849Z,84.03
2022-08-17T13:35:29.535Z,84.20
2022-08-17T13:38:04.873Z,84.80
2022-08-17T13:40:37.503Z,85.23
2022-08-17T13:43:04.323Z,83.88
2022-08-17T13:45:35.695Z,84.21
2022-08-17T13:48:28.201Z,84.51
2022-08-17T13:50:54.645Z,84.40
2022-08-17T13:53:31.340Z,84.32
2022-08-17T13:56:02.308Z,84.39
2022-08-17T13:58:57.850Z,83.45
2022-08-17T14:01:35.516Z,84.19
2022-08-17T14:04:12.364Z,83.91
2022-08-17T14:06:52.953Z,83.94
2022-08-17T14:09:23.976Z,84.40
2022-08-17T14:11:51.412Z,83.73
2022-08-17T14:14:18.229Z,83.81
2022-08-17T14:16:44.964Z,83.86
2022-08-17T14:19:13.055Z,84.03
2022-08-17T14:21:40.700Z,84.36
2022-08-17T14:24:10.963Z,84.57
2022-08-17T14:26:37.526Z,84.96
2022-08-17T14:29:04.184Z,85.01
2022-08-17T14:31:41.539Z,85.10
2022-08-17T14:34:10.641Z,83.98
2022-08-17T14:36:38.309Z,83.30
2022-08-17T14:39:13.961Z,83.99
2022-08-17T14:41:41.934Z,84.86
2022-08-17T14:44:12.380Z,84.18
2022-08-17T14:46:43.960Z,84.77
2022-08-17T14:49:12.388Z,82.22
2022-08-17T14:51:44.003Z,83.07
2022-08-17T14:54:33.461Z,83.32
2022-08-17T14:57:23.683Z,83.42
2022-08-17T14:59:46.634Z,84.17
2022-08-17T15:02:13.193Z,84.19
2022-08-17T15:04:45.429Z,84.28
2022-08-17T15:07:12.206Z,83.60
2022-08-17T15:09:38.968Z,83.20
2022-08-17T15:12:08.764Z,83.88
2022-08-17T15:14:36.173Z,82.44
2022-08-17T15:17:03.613Z,82.65
2022-08-17T15:19:30.284Z,83.35
2022-08-17T15:21:56.882Z,83.77
2022-08-17T15:24:23.366Z,82.94
2022-08-17T15:26:49.936Z,83.33
2022-08-17T15:29:16.479Z,83.48
2022-08-17T15:31:43.137Z,84.39
2022-08-17T15:34:09.674Z,84.57
2022-08-17T15:36:36.242Z,84.96
2022-08-17T15:39:03.527Z,85.04
2022-08-17T15:41:31.155Z,84.73
2022-08-17T15:43:57.668Z,85.42
2022-08-17T15:46:25.616Z,85.63
2022-08-17T15:48:58.025Z,84.75
2022-08-17T15:51:30.386Z,85.00
2022-08-17T15:54:04.513Z,84.29
2022-08-17T15:56:46.032Z,84.83
2022-08-17T15:59:12.527Z,84.66
2022-08-17T16:03:14.978Z,84.55
2022-08-17T16:04:29.568Z,84.78
2022-08-17T16:06:58.634Z,85.04
2022-08-17T16:09:25.128Z,84.38
2022-08-17T16:11:52.084Z,85.23
2022-08-17T16:14:22.297Z,85.40
2022-08-17T16:16:49.680Z,84.92
2022-08-17T16:19:16.311Z,84.21
2022-08-17T16:21:43.403Z,84.09
2022-08-17T16:24:13.416Z,84.76
2022-08-17T16:26:41.826Z,83.37
2022-08-17T16:29:09.058Z,84.48
2022-08-17T16:31:37.501Z,84.58
2022-08-17T16:34:17.284Z,84.22
2022-08-17T16:36:53.703Z,84.90
2022-08-17T16:39:28.965Z,85.57
2022-08-17T16:41:56.560Z,85.78
2022-08-17T16:44:23.049Z,85.15
2022-08-17T16:46:50.134Z,85.27
2022-08-17T16:49:35.063Z,85.73
2022-08-17T16:52:06.152Z,85.27
2022-08-17T16:54:33.375Z,85.54
2022-08-17T16:57:00.176Z,85.28
2022-08-17T16:59:31.041Z,85.04
2022-08-17T17:02:10.775Z,85.25
2022-08-17T17:04:49.879Z,85.18
2022-08-17T17:07:43.674Z,85.38
2022-08-17T17:10:15.161Z,85.49
2022-08-17T17:13:02.209Z,84.20
2022-08-17T17:15:40.289Z,85.52
2022-08-17T17:18:13.348Z,85.90
2022-08-17T17:20:52.074Z,85.48
2022-08-17T17:23:37.176Z,85.96
2022-08-17T17:26:35.353Z,85.83
2022-08-17T17:29:12.212Z,85.76
2022-08-17T17:31:54.801Z,86.33
2022-08-17T17:34:22.609Z,85.97
2022-08-17T17:37:01.424Z,86.62
2022-08-17T17:39:48.898Z,85.91
2022-08-17T17:42:20.489Z,85.90
2022-08-17T17:44:49.325Z,84.53
2022-08-17T17:47:16.089Z,86.45
2022-08-17T17:49:44.984Z,86.64
2022-08-17T17:52:37.267Z,86.50
2022-08-17T17:55:21.916Z,86.82
2022-08-17T17:58:26.193Z,87.14
2022-08-17T18:01:16.246Z,86.83
2022-08-17T18:04:00.626Z,86.91
2022-08-17T18:06:55.514Z,87.22
2022-08-17T18:09:54.233Z,86.81
2022-08-17T18:12:43.357Z,87.08
2022-08-17T18:15:30.288Z,87.20
2022-08-17T18:18:31.035Z,87.01
2022-08-17T18:21:06.946Z,87.14
2022-08-17T18:23:34.131Z,86.70
2022-08-17T18:26:01.966Z,86.73
2022-08-17T18:28:41.037Z,87.13
2022-08-17T18:31:10.508Z,87.38
2022-08-17T18:33:40.753Z,86.87
2022-08-17T18:36:07.969Z,86.67
2022-08-17T18:38:35.982Z,86.19
2022-08-17T18:41:19.105Z,86.21
2022-08-17T18:44:04.437Z,85.79
2022-08-17T18:46:35.844Z,85.81
2022-08-17T18:49:25.353Z,84.77
2022-08-17T18:52:15.645Z,85.56
2022-08-17T18:55:19.758Z,85.74
2022-08-17T18:57:53.153Z,85.86
2022-08-17T19:00:40.193Z,85.86
2022-08-17T19:03:15.925Z,86.02
2022-08-17T19:05:45.928Z,86.79
2022-08-17T19:08:23.022Z,85.98
2022-08-17T19:10:55.480Z,86.23
2022-08-17T19:13:28.862Z,85.97
2022-08-17T19:16:12.049Z,85.63
2022-08-17T19:18:58.140Z,85.56
2022-08-17T19:21:37.086Z,85.88
2022-08-17T19:24:11.292Z,86.36
2022-08-17T19:26:54.854Z,86.22
2022-08-17T19:29:31.075Z,86.35
2022-08-17T19:31:58.660Z,86.42
2022-08-17T19:34:33.375Z,86.37
2022-08-17T19:37:07.395Z,87.06
2022-08-17T19:40:09.371Z,86.59
2022-08-17T19:42:57.262Z,87.08
2022-08-17T19:45:45.639Z,86.94
2022-08-17T19:48:38.473Z,87.71
2022-08-17T19:51:15.401Z,87.80
2022-08-17T19:54:06.352Z,87.36
2022-08-17T19:56:42.390Z,87.32
2022-08-17T19:59:15.565Z,87.63
2022-08-17T20:01:50.022Z,87.55
2022-08-17T20:04:31.787Z,87.77
2022-08-17T20:07:19.883Z,87.30
2022-08-17T20:10:04.449Z,87.45
2022-08-17T20:12:35.171Z,87.40
2022-08-17T20:15:09.476Z,88.08
2022-08-17T20:17:39.191Z,88.08
2022-08-17T20:20:30.703Z,87.87
2022-08-17T20:23:11.020Z,88.32
2022-08-17T20:25:47.669Z,88.48
2022-08-17T20:28:22.644Z,88.01
2022-08-17T20:30:50.673Z,88.69
2022-08-17T20:33:36.603Z,88.33
2022-08-17T20:36:19.520Z,88.12
2022-08-17T20:38:54.587Z,88.21
2022-08-17T20:41:23.876Z,88.13
2022-08-17T20:43:56.081Z,88.40
2022-08-17T20:46:38.038Z,88.46
2022-08-17T20:49:44.587Z,88.75
2022-08-17T20:52:15.490Z,88.34
2022-08-17T20:54:52.861Z,88.61
2022-08-17T20:57:34.353Z,88.97
2022-08-17T21:00:15.527Z,88.83
2022-08-17T21:02:49.441Z,89.26
2022-08-17T21:05:34.550Z,88.50
2022-08-17T21:08:18.318Z,89.14
2022-08-17T21:10:46.869Z,89.19
2022-08-17T21:13:15.308Z,89.37
2022-08-17T21:15:42.269Z,89.44
2022-08-17T21:18:20.344Z,88.81
2022-08-17T21:21:06.585Z,88.90
2022-08-17T21:24:12.746Z,88.97
2022-08-17T21:26:50.483Z,89.78
2022-08-17T21:29:32.562Z,90.07
2022-08-17T21:32:03.607Z,90.37
2022-08-17T21:34:37.124Z,91.08
2022-08-17T21:37:18.768Z,91.36
2022-08-17T21:39:54.139Z,91.60
2022-08-17T21:42:31.634Z,91.28
2022-08-17T21:45:09.040Z,91.42
2022-08-17T21:47:36.231Z,91.12
2022-08-17T21:50:23.838Z,91.62
2022-08-17T21:52:53.951Z,91.72
2022-08-17T21:55:29.428Z,91.31
2022-08-17T21:58:14.376Z,91.29
2022-08-17T22:00:44.348Z,91.47
2022-08-17T22:03:24.614Z,91.29
2022-08-17T22:05:51.348Z,91.51
2022-08-17T22:08:23.616Z,91.37
2022-08-17T22:10:51.429Z,91.98
2022-08-17T22:13:18.019Z,92.12
2022-08-17T22:15:49.820Z,92.42
2022-08-17T22:18:28.654Z,92.57
2022-08-17T22:20:57.046Z,92.52
2022-08-17T22:23:53.135Z,92.44
2022-08-17T22:26:22.488Z,91.95
2022-08-17T22:28:52.704Z,92.44
2022-08-17T22:31:30.408Z,92.55
2022-08-17T22:34:02.515Z,93.03
2022-08-17T22:36:29.918Z,92.89
2022-08-17T22:39:00.349Z,93.17
2022-08-17T22:42:00.252Z,93.59
2022-08-17T22:44:31.928Z,93.63
2022-08-17T22:47:01.112Z,93.25
2022-08-17T22:49:33.373Z,94.32
2022-08-17T22:52:02.610Z,93.79
2022-08-17T22:54:48.428Z,93.87
2022-08-17T22:57:34.384Z,93.80
2022-08-17T23:00:01.249Z,94.11
2022-08-17T23:02:33.731Z,94.29
2022-08-17T23:05:21.258Z,93.68
2022-08-17T23:07:52.208Z,93.92
2022-08-17T23:10:18.876Z,93.77
2022-08-17T23:12:46.048Z,93.86
2022-08-17T23:15:18.096Z,94.35
2022-08-17T23:17:45.401Z,93.91
2022-08-17T23:20:13.631Z,93.84
2022-08-17T23:22:52.131Z,93.77
2022-08-17T23:25:27.794Z,94.13
2022-08-17T23:27:54.738Z,94.28
2022-08-17T23:30:24.829Z,94.30
2022-08-17T23:32:53.341Z,94.49
2022-08-17T23:35:39.212Z,94.63
2022-08-17T23:38:08.600Z,94.85
2022-08-17T23:40:35.178Z,94.81
2022-08-17T23:43:04.494Z,95.09
2022-08-17T23:45:32.528Z,94.90
2022-08-17T23:48:00.251Z,95.45
2022-08-17T23:50:29.896Z,95.42
2022-08-17T23:52:57.734Z,95.37
2022-08-17T23:55:24.353Z,95.11
2022-08-17T23:57:51.127Z,95.12
